createdAt,value
2022-10-22T00:03:25.424Z,8.17
2022-10-22T00:08:27.400Z,8.16
2022-10-22T00:13:29.365Z,8.11
2022-10-22T00:18:31.381Z,8.09
2022-10-22T00:23:33.582Z,8.14
2022-10-22T00:28:35.487Z,8.15
2022-10-22T00:33:37.557Z,8.12
2022-10-22T00:38:39.604Z,8.13
2022-10-22T00:43:58.554Z,8.14
2022-10-22T00:49:01.913Z,8.13
2022-10-22T00:54:07.254Z,8.13
2022-10-22T00:59:09.897Z,8.15
2022-10-22T01:04:11.872Z,8.13
2022-10-22T01:09:20.197Z,8.06
2022-10-22T01:14:40.584Z,7.98
2022-10-22T01:19:42.427Z,7.88
2022-10-22T01:24:52.841Z,7.85
2022-10-22T01:30:00.901Z,7.78
2022-10-22T01:35:08.985Z,7.76
2022-10-22T01:40:11.988Z,7.72
2022-10-22T01:45:15.081Z,7.67
2022-10-22T01:50:16.945Z,7.64
2022-10-22T01:55:32.061Z,7.60
2022-10-22T02:00:36.507Z,7.60
2022-10-22T02:05:38.432Z,7.60
2022-10-22T02:10:42.299Z,7.64
2022-10-22T02:15:46.047Z,7.63
2022-10-22T02:20:48.861Z,7.65
2022-10-22T02:25:54.139Z,7.72
2022-10-22T02:31:00.396Z,7.74
2022-10-22T02:36:03.064Z,7.75
2022-10-22T02:41:06.090Z,7.79
2022-10-22T02:46:08.858Z,7.82
2022-10-22T02:51:11.033Z,7.83
2022-10-22T02:56:14.232Z,7.85
2022-10-22T03:01:16.342Z,7.88
2022-10-22T03:06:18.680Z,7.93
2022-10-22T03:11:20.704Z,7.95
2022-10-22T03:16:22.593Z,7.97
2022-10-22T03:21:42.338Z,8.00
2022-10-22T03:26:46.034Z,8.07
2022-10-22T03:31:47.903Z,8.09
2022-10-22T03:36:51.600Z,8.08
2022-10-22T03:41:53.726Z,8.05
2022-10-22T03:46:58.679Z,8.03
2022-10-22T03:52:08.120Z,8.05
2022-10-22T03:57:10.344Z,8.02
2022-10-22T04:02:13.078Z,8.04
2022-10-22T04:07:15.089Z,8.06
2022-10-22T04:12:17.167Z,8.10
2022-10-22T04:17:19.173Z,8.07
2022-10-22T04:22:21.055Z,7.95
2022-10-22T04:27:23.091Z,7.92
2022-10-22T04:32:25.591Z,7.94
2022-10-22T04:37:27.557Z,8.05
2022-10-22T04:42:29.551Z,8.11
2022-10-22T04:47:31.557Z,8.19
2022-10-22T04:52:33.464Z,8.22
2022-10-22T04:57:35.538Z,8.25
2022-10-22T05:02:37.661Z,8.27
2022-10-22T05:07:39.817Z,8.23
2022-10-22T05:12:42.065Z,8.21
2022-10-22T05:17:44.043Z,8.23
2022-10-22T05:22:46.009Z,8.27
2022-10-22T05:27:51.169Z,8.37
2022-10-22T05:32:53.129Z,8.49
2022-10-22T05:37:58.063Z,8.66
2022-10-22T05:43:00.475Z,8.87
2022-10-22T05:48:02.403Z,9.01
2022-10-22T05:53:05.317Z,9.15
2022-10-22T05:58:07.329Z,9.18
2022-10-22T06:03:09.210Z,9.31
2022-10-22T06:08:18.200Z,9.32
2022-10-22T06:13:21.383Z,9.36
2022-10-22T06:18:23.427Z,9.49
2022-10-22T06:23:25.452Z,9.70
2022-10-22T06:28:27.617Z,9.92
2022-10-22T06:33:31.302Z,9.95
2022-10-22T06:38:34.178Z,10.03
2022-10-22T06:43:36.306Z,10.01
2022-10-22T06:48:38.756Z,10.12
2022-10-22T06:53:40.823Z,10.26
2022-10-22T06:58:42.893Z,10.23
2022-10-22T07:03:44.799Z,10.32
2022-10-22T07:08:46.738Z,10.44
2022-10-22T07:13:49.189Z,10.54
2022-10-22T07:18:51.858Z,10.59
2022-10-22T07:23:53.831Z,10.57
2022-10-22T07:28:55.815Z,10.65
2022-10-22T07:33:58.385Z,10.65
2022-10-22T07:39:00.851Z,10.82
2022-10-22T07:44:02.852Z,10.94
2022-10-22T07:49:04.830Z,11.12
2022-10-22T07:54:07.027Z,11.28
2022-10-22T07:59:09.333Z,11.53
2022-10-22T08:04:11.517Z,11.73
2022-10-22T08:09:13.513Z,12.03
2022-10-22T08:14:15.480Z,12.08
2022-10-22T08:19:21.380Z,12.12
2022-10-22T08:24:23.366Z,12.07
2022-10-22T08:29:26.878Z,11.92
2022-10-22T08:34:29.321Z,11.60
2022-10-22T08:39:31.196Z,11.13
2022-10-22T08:45:11.405Z,10.88
2022-10-22T08:50:16.123Z,10.79
2022-10-22T08:55:18.060Z,10.63
2022-10-22T09:00:22.308Z,10.50
2022-10-22T09:05:40.494Z,10.24
2022-10-22T09:10:46.421Z,10.18
2022-10-22T09:16:09.901Z,10.23
2022-10-22T09:21:21.374Z,10.43
2022-10-22T09:26:25.853Z,10.76
2022-10-22T09:31:30.286Z,11.03
2022-10-22T09:36:32.522Z,11.37
2022-10-22T09:41:34.546Z,11.45
2022-10-22T09:46:43.980Z,11.29
2022-10-22T09:51:56.360Z,11.28
2022-10-22T09:57:02.876Z,11.21
2022-10-22T10:02:20.400Z,11.29
2022-10-22T10:07:36.413Z,11.30
2022-10-22T10:12:56.684Z,11.32
2022-10-22T10:18:12.535Z,11.31
2022-10-22T10:23:14.527Z,11.10
2022-10-22T10:28:22.280Z,11.13
2022-10-22T10:33:31.686Z,11.15
2022-10-22T10:38:43.391Z,10.91
2022-10-22T10:44:05.542Z,10.72
2022-10-22T10:49:16.906Z,10.60
2022-10-22T10:54:26.476Z,10.49
2022-10-22T10:59:35.483Z,10.50
2022-10-22T11:04:43.277Z,10.54
2022-10-22T11:10:03.655Z,10.64
2022-10-22T11:15:20.838Z,10.71
2022-10-22T11:20:26.791Z,10.65
2022-10-22T11:25:45.554Z,10.54
2022-10-22T11:30:49.740Z,10.55
2022-10-22T11:35:52.801Z,10.52
2022-10-22T11:40:59.142Z,10.45
2022-10-22T11:46:24.427Z,10.42
2022-10-22T11:51:32.064Z,10.39
2022-10-22T11:56:37.572Z,10.37
2022-10-22T12:01:43.133Z,10.38
2022-10-22T12:07:03.329Z,10.33
2022-10-22T12:12:13.505Z,10.26
2022-10-22T12:17:16.445Z,10.25
2022-10-22T12:22:20.814Z,10.35
2022-10-22T12:27:26.896Z,10.47
2022-10-22T12:32:38.407Z,10.41
2022-10-22T12:37:40.757Z,10.46
2022-10-22T12:42:49.974Z,10.49
2022-10-22T12:47:56.007Z,10.47
2022-10-22T12:52:57.924Z,10.48
2022-10-22T12:58:00.344Z,10.46
2022-10-22T13:03:05.257Z,10.47
2022-10-22T13:08:12.096Z,10.39
2022-10-22T13:13:30.590Z,10.38
2022-10-22T13:18:33.256Z,10.33
2022-10-22T13:23:35.200Z,10.30
2022-10-22T13:28:37.198Z,10.24
2022-10-22T13:33:43.641Z,10.00
2022-10-22T13:38:45.866Z,9.68
2022-10-22T13:43:48.209Z,9.42
2022-10-22T13:48:52.638Z,9.33
2022-10-22T13:53:54.786Z,9.26
2022-10-22T13:58:56.776Z,9.23
2022-10-22T14:04:02.040Z,9.20
2022-10-22T14:09:05.767Z,9.17
2022-10-22T14:14:09.293Z,9.16
2022-10-22T14:19:15.255Z,9.17
2022-10-22T14:24:17.182Z,9.18
2022-10-22T14:29:19.356Z,9.19
2022-10-22T14:34:21.294Z,9.19
2022-10-22T14:39:23.205Z,9.17
2022-10-22T14:44:25.569Z,9.18
2022-10-22T14:49:27.607Z,9.21
2022-10-22T14:54:29.606Z,9.22
2022-10-22T14:59:32.385Z,9.23
2022-10-22T15:04:34.300Z,9.24
2022-10-22T15:09:36.211Z,9.27
2022-10-22T15:14:38.171Z,9.26
2022-10-22T15:19:40.053Z,9.24
2022-10-22T15:24:45.050Z,9.19
2022-10-22T15:29:47.095Z,9.16
2022-10-22T15:34:52.265Z,9.19
2022-10-22T15:39:54.384Z,9.19
2022-10-22T15:44:58.278Z,9.21
2022-10-22T15:50:00.895Z,9.22
2022-10-22T15:55:06.992Z,9.21
2022-10-22T16:00:09.283Z,9.20
2022-10-22T16:05:17.392Z,9.18
2022-10-22T16:10:19.264Z,9.14
2022-10-22T16:15:21.247Z,9.13
2022-10-22T16:20:23.233Z,9.10
2022-10-22T16:25:25.734Z,9.07
2022-10-22T16:30:27.619Z,9.05
2022-10-22T16:35:29.826Z,9.06
2022-10-22T16:40:31.749Z,9.10
2022-10-22T16:45:33.706Z,9.12
2022-10-22T16:50:38.875Z,9.14
2022-10-22T16:55:40.890Z,9.15
2022-10-22T17:00:42.964Z,9.13
2022-10-22T17:05:44.950Z,9.08
2022-10-22T17:10:47.010Z,9.05
2022-10-22T17:15:48.978Z,9.07
2022-10-22T17:20:50.967Z,9.07
2022-10-22T17:25:58.190Z,9.09
2022-10-22T17:31:07.754Z,9.12
2022-10-22T17:36:11.995Z,9.12
2022-10-22T17:41:17.615Z,9.06
2022-10-22T17:46:20.627Z,9.02
2022-10-22T17:51:23.538Z,9.02
2022-10-22T17:56:26.841Z,9.02
2022-10-22T18:01:30.091Z,9.08
2022-10-22T18:06:32.557Z,9.09
2022-10-22T18:11:36.164Z,9.04
2022-10-22T18:16:38.143Z,8.99
2022-10-22T18:21:40.120Z,8.95
2022-10-22T18:26:42.510Z,8.95
2022-10-22T18:31:44.910Z,8.94
2022-10-22T18:36:46.798Z,8.92
2022-10-22T18:41:48.740Z,8.94
2022-10-22T18:46:50.962Z,8.97
2022-10-22T18:51:53.129Z,9.00
2022-10-22T18:57:00.628Z,9.01
2022-10-22T19:02:05.271Z,9.01
2022-10-22T19:12:15.061Z,8.96
2022-10-22T19:17:17.009Z,8.91
2022-10-22T19:22:19.015Z,8.88
2022-10-22T19:27:21.100Z,8.87
2022-10-22T19:32:24.416Z,8.82
2022-10-22T19:37:28.435Z,8.77
2022-10-22T19:42:30.368Z,8.79
2022-10-22T19:47:32.415Z,8.76
2022-10-22T19:52:34.422Z,8.74
2022-10-22T19:57:37.623Z,8.77
2022-10-22T20:02:41.517Z,8.77
2022-10-22T20:07:43.762Z,8.79
2022-10-22T20:12:45.890Z,8.75
2022-10-22T20:17:48.048Z,8.80
2022-10-22T20:22:50.004Z,8.83
2022-10-22T20:27:51.934Z,8.87
2022-10-22T20:32:53.860Z,8.91
2022-10-22T20:37:55.805Z,8.88
2022-10-22T20:43:01.373Z,8.83
2022-10-22T20:48:04.053Z,8.85
2022-10-22T20:53:06.147Z,8.89
2022-10-22T20:58:08.105Z,8.87
2022-10-22T21:03:10.251Z,8.84
2022-10-22T21:08:17.356Z,8.84
2022-10-22T21:13:19.591Z,8.83
2022-10-22T21:18:21.505Z,8.78
2022-10-22T21:23:23.435Z,8.72
2022-10-22T21:28:25.957Z,8.72
2022-10-22T21:33:27.923Z,8.73
2022-10-22T21:38:29.986Z,8.74
2022-10-22T21:43:31.980Z,8.73
2022-10-22T21:48:34.113Z,8.70
2022-10-22T21:53:36.711Z,8.69
2022-10-22T21:58:38.657Z,8.72
2022-10-22T22:03:45.525Z,8.72
2022-10-22T22:08:48.446Z,8.71
2022-10-22T22:13:51.200Z,8.67
2022-10-22T22:18:53.332Z,8.66
2022-10-22T22:23:55.421Z,8.67
2022-10-22T22:29:00.292Z,8.68
2022-10-22T22:34:03.319Z,8.66
2022-10-22T22:39:06.339Z,8.63
2022-10-22T22:44:08.292Z,8.66
2022-10-22T22:49:10.433Z,8.62
2022-10-22T22:54:12.439Z,8.59
2022-10-22T22:59:14.383Z,8.57
2022-10-22T23:04:19.352Z,8.61
2022-10-22T23:14:28.028Z,8.61
2022-10-22T23:19:29.983Z,8.53
2022-10-22T23:24:31.889Z,8.56
2022-10-22T23:29:35.876Z,8.59
2022-10-22T23:34:37.893Z,8.62
2022-10-22T23:39:39.849Z,8.60
2022-10-22T23:44:41.867Z,8.58
2022-10-22T23:49:43.839Z,8.59
2022-10-22T23:54:45.810Z,8.58
2022-10-22T23:59:47.794Z,8.61
